Longmire, WA

1:55 AM PST on January 20, 2017 (GMT -0800)
Ashford | | Change Station
Active Advisory: Small Craft Advisory

Elev 1935 ft 46.74 °N, 121.97 °W | Updated 25 seconds ago

Partly Cloudy
Partly Cloudy
31.6 °F
Feels Like 32 °F
N
0.0
Wind Variable Wind from ESE

Today
High -- | Low -- °F
--% Chance of Precip.
Yesterday
High -- | Low -- °F
Precip. -- in
Pressure 29.40 in
Visibility 0.5 miles
Clouds
Windchill 32 °F
Dew Point 31 °F
Humidity 99%
Rainfall 0.00 in
Snow Depth Not available.
7:43 AM 4:53 PM
Last Quarter, 45% visible
METAR KSMP 200856Z AUTO VRB04KT 1/2SM FZFG VV002 M01/M02 A2935 RMK AO2 SLP955 60000 I3000 T10111022 58022 FZRANO $
Pressure 29.40 in
Visibility 0.5 miles
Clouds
Windchill 32 °F
Dew Point 31 °F
Humidity 99%
Rainfall 0.00 in
Snow Depth Not available.
7:43 AM 4:53 PM
Last Quarter, 45% visible
METAR KSMP 200856Z AUTO VRB04KT 1/2SM FZFG VV002 M01/M02 A2935 RMK AO2 SLP955 60000 I3000 T10111022 58022 FZRANO $

Get Your Daily Forecast Email!

Thanks for signing up!

Be on the lookout for a verification email in your inbox.

You'll start receiving the daily forecast at 8 AM.

×

10-Day Weather Forecast

Almanac

Astronomy

Jan. 20, 2017 Rise Set
Actual Time
Civil Twilight
Nautical Twilight
Astronomical Twilight
Moon
Length of Visible Light
Length of Day
Tomorrow will be .
, % of the Moon is Illuminated

Today's Extremes

State Highs State Lows

Community

WunderPhotos

Upload Photos

1,962,540 photos uploaded!

WunderBlog® & News

Nearby

Air Quality

  Air Quality AQ Index Pollutant
Not available.

Snow Depth

Station Depth Elevation

Earthquake Activity

City Distance Mag. Time & Date
Minimum magnitude displayed is 2.5.

Coastal Water Temperatures

Place Temperature

Stations

Nearby Weather Stations

Station Location Temp. Windchill Dew Point Humidity Wind Precip. Elev Updated Type
                   

Watches & Warnings

Small Craft Advisory
Issued: 8:52 PM PST Jan. 19, 2017 – National Weather Service

... Small Craft Advisory remains in effect until 4 PM PST Friday...

* winds... southeast 15 to 30 kt.

Precautionary/preparedness actions...

A Small Craft Advisory means that wind speeds of 21 to 33 knots are
expected to produce hazardous wave conditions to small craft.
Inexperienced mariners... especially those operating smaller vessels
should avoid navigating in these conditions.